Weather at Adkins Heliport

Public forecast

Using degrees Fahrenheit for public forecast. Weather courtesy of forecast.io.

Closest aviation weather report (METAR) to Adkins Heliport

Closest report is Randolph Air Force Base, 6.7 nm (12.5 km) N.

2024/05/28 13:59 (retrieved 33 minutes ago)

KRND 281359Z 17010KT 6SM BR SCT005 28/25 A2993 RMK AO2A SLPNO

Closest aviation forecast (TAF) to Adkins Heliport

Closest forecast is Randolph Air Force Base, 6.7 nm (12.5 km) N.

2024/05/28 10:54 (retrieved 4 hours ago)

TAF KRND 280945Z 2810/2916 VRB05KT 6000 BR FEW004 SCT020 QNH2995INS TEMPO 2811/2814 1600 BR BKN004 OVC020 BECMG 2815/2816 12010KT 8000 BR SCT015 BKN030 QNH3000INS BECMG 2816/2817 15010G15KT 9000 HZ SCT027 QNH3000INS BECMG 2818/2819 14012G22KT 9999 NSW FEW040 QNH2985INS TEMPO 2819/2824 14015G25KT BECMG 2901/2902 14010G15KT 8000 SHRA VCTS FEW018 SCT026CB BKN095 QNH2994INS TEMPO 2903/2907 16025G43KT 1600 +TSRAGR BKN018CB BKN026 OVC095 BECMG 2906/2907 16006KT 8000 -SHRA VCTS BKN011 BKN019CB BKN060 QNH2996INS BECMG 2910/2911 VRB06KT 8000 BR BKN007 OVC012 QNH2994INS BECMG 2914/2915 VRB06KT 9999 NSW BKN015 QNH2995INS TX37/2821Z TN26/2812Z